Time;durP1;ratioP1;P1;durP2;ratioP2;P2;SDS_P1;SDS_P2;PMS_P1;PMS_P2;Temp;Humidity;BMP_temperature;BMP_pressure;BME280_temperature;BME280_humidity;BME280_pressure;Samples;Min_cycle;Max_cycle;Signal;HPM_P1;HPM_P2
2021/10/02 00:34:11;;;;;;;8.00;6.32;;;10.70;99.20;;;;;;5069424;28;20197;-86
2021/10/02 00:36:55;;;;;;;6.07;3.70;;;10.80;99.50;;;;;;5074136;28;20232;-88
2021/10/02 00:44:56;;;;;;;9.23;5.82;;;11.00;99.10;;;;;;5080861;28;20207;-88
2021/10/02 00:47:47;;;;;;;6.63;5.28;;;11.00;99.00;;;;;;5046942;28;20229;-88
2021/10/02 00:50:16;;;;;;;8.20;4.50;;;11.10;98.60;;;;;;5075121;28;20231;-86
2021/10/02 00:52:43;;;;;;;6.05;5.45;;;11.10;98.60;;;;;;5099648;28;20208;-86
2021/10/02 00:55:14;;;;;;;7.05;4.22;;;11.00;98.60;;;;;;5085261;28;20293;-88
2021/10/02 00:57:41;;;;;;;6.00;4.63;;;10.90;98.50;;;;;;5080283;28;20275;-87
2021/10/02 01:00:12;;;;;;;5.10;4.03;;;10.90;98.60;;;;;;5070838;28;20268;-86
2021/10/02 01:02:51;;;;;;;4.43;3.97;;;10.80;98.60;;;;;;5071308;28;20233;-86
2021/10/02 01:05:43;;;;;;;6.00;4.72;;;10.70;99.00;;;;;;5071541;28;20549;-87
2021/10/02 01:08:24;;;;;;;5.03;4.00;;;10.80;99.30;;;;;;5096430;28;20212;-85
2021/10/02 01:10:57;;;;;;;4.88;4.00;;;10.90;99.00;;;;;;5094571;28;20302;-86
2021/10/02 01:13:32;;;;;;;6.22;4.18;;;10.90;99.00;;;;;;5067536;28;20235;-87
2021/10/02 01:16:09;;;;;;;5.13;3.95;;;10.80;99.00;;;;;;5109024;28;20222;-86
2021/10/02 01:18:43;;;;;;;5.45;4.40;;;10.70;99.20;;;;;;5092554;28;20204;-87
2021/10/02 01:21:33;;;;;;;4.70;4.20;;;10.70;99.50;;;;;;5101838;28;20288;-87
2021/10/02 01:24:11;;;;;;;4.82;4.25;;;10.80;99.40;;;;;;5102484;28;20602;-85
2021/10/02 01:27:08;;;;;;;4.93;4.38;;;10.70;99.50;;;;;;5101188;28;20299;-90
2021/10/02 01:29:38;;;;;;;4.78;3.97;;;10.80;99.50;;;;;;5103249;28;20200;-86
2021/10/02 01:32:13;;;;;;;5.40;4.32;;;10.90;99.40;;;;;;5101915;28;20292;-86
2021/10/02 01:34:53;;;;;;;5.40;4.22;;;10.90;99.10;;;;;;5101372;28;20192;-86
2021/10/02 01:37:26;;;;;;;4.53;3.85;;;10.90;99.40;;;;;;5101766;28;20222;-86
2021/10/02 01:48:39;;;;;;;5.57;4.65;;;11.00;99.40;;;;;;5068640;28;20212;-86
2021/10/02 01:51:08;;;;;;;5.38;4.28;;;11.00;99.30;;;;;;5082546;28;20229;-86
2021/10/02 01:53:37;;;;;;;5.75;4.43;;;11.10;99.30;;;;;;5082464;28;20201;-87
2021/10/02 01:56:07;;;;;;;5.35;3.90;;;11.20;98.90;;;;;;5086616;28;20232;-86
2021/10/02 01:58:35;;;;;;;7.13;5.22;;;11.10;98.60;;;;;;5094704;28;20196;-86
2021/10/02 02:04:28;;;;;;;6.75;4.43;;;11.10;98.60;;;;;;5062758;28;20169;-89
2021/10/02 02:07:17;;;;;;;6.53;4.10;;;11.10;99.00;;;;;;5078401;28;20260;-85
2021/10/02 02:09:45;;;;;;;4.13;3.63;;;11.20;98.60;;;;;;5082263;28;20286;-86
2021/10/02 02:12:16;;;;;;;7.00;4.68;;;11.20;98.30;;;;;;5072513;28;20288;-86
2021/10/02 02:14:46;;;;;;;5.32;3.95;;;11.20;98.60;;;;;;5081331;28;20227;-86
2021/10/02 02:17:16;;;;;;;5.43;3.85;;;11.30;98.40;;;;;;5087433;28;20283;-86
2021/10/02 02:19:46;;;;;;;5.40;4.00;;;11.30;98.20;;;;;;5063872;28;20213;-85
2021/10/02 02:22:14;;;;;;;6.30;4.20;;;11.30;98.00;;;;;;5078499;28;20221;-85
2021/10/02 02:24:41;;;;;;;4.55;3.90;;;11.30;98.30;;;;;;5078629;28;20197;-85
2021/10/02 02:27:09;;;;;;;3.85;3.50;;;11.30;97.90;;;;;;5080851;28;20225;-87
2021/10/02 02:29:36;;;;;;;4.50;4.00;;;11.20;97.90;;;;;;5068115;28;20205;-86
2021/10/02 02:32:04;;;;;;;3.88;3.47;;;11.20;98.90;;;;;;5083691;28;20192;-86
2021/10/02 02:34:31;;;;;;;4.88;3.63;;;11.20;98.60;;;;;;5090476;28;20279;-86
2021/10/02 02:37:00;;;;;;;4.85;4.07;;;11.20;98.10;;;;;;5096810;28;20221;-86
2021/10/02 02:39:27;;;;;;;6.82;3.45;;;11.20;98.50;;;;;;5085832;28;20288;-85
2021/10/02 02:41:55;;;;;;;5.53;3.60;;;11.30;98.20;;;;;;5071003;28;20255;-86
2021/10/02 02:44:22;;;;;;;6.18;4.00;;;11.30;98.10;;;;;;5085123;28;20240;-85
2021/10/02 02:46:55;;;;;;;5.35;3.33;;;11.30;98.60;;;;;;5083924;28;20220;-86
2021/10/02 02:49:30;;;;;;;4.40;3.70;;;11.30;98.10;;;;;;5085366;28;20193;-85
2021/10/02 02:52:03;;;;;;;4.30;3.63;;;11.30;98.10;;;;;;5071166;28;20264;-85
2021/10/02 02:54:40;;;;;;;5.20;3.95;;;11.10;98.30;;;;;;5085059;28;20269;-86
2021/10/02 02:57:12;;;;;;;3.90;3.50;;;11.10;99.00;;;;;;5083608;28;20204;-86
2021/10/02 02:59:44;;;;;;;4.97;3.78;;;11.30;98.70;;;;;;5079756;28;20227;-85
2021/10/02 03:02:18;;;;;;;7.68;3.83;;;11.30;98.30;;;;;;5098424;28;20226;-86
2021/10/02 03:04:49;;;;;;;5.15;3.60;;;11.50;98.10;;;;;;5105040;28;20255;-85
2021/10/02 03:07:21;;;;;;;4.35;3.63;;;11.40;97.40;;;;;;5104308;28;20230;-87
2021/10/02 03:09:52;;;;;;;7.60;3.75;;;11.20;97.70;;;;;;5105258;28;20666;-86
2021/10/02 03:12:22;;;;;;;4.10;3.70;;;11.20;98.60;;;;;;5088712;28;20232;-86
2021/10/02 03:14:52;;;;;;;4.95;4.20;;;11.30;98.10;;;;;;5083037;28;20348;-86
2021/10/02 03:17:21;;;;;;;5.50;4.10;;;11.20;98.20;;;;;;5071698;28;20236;-86
2021/10/02 03:19:50;;;;;;;4.78;4.03;;;11.20;98.40;;;;;;5085043;28;20236;-86
2021/10/02 03:22:18;;;;;;;4.53;3.35;;;11.30;98.30;;;;;;5074622;28;20229;-86
2021/10/02 03:24:47;;;;;;;4.00;3.60;;;11.30;98.20;;;;;;5070471;28;20200;-86
2021/10/02 03:27:15;;;;;;;4.45;3.95;;;11.20;97.80;;;;;;5083714;28;20237;-86
2021/10/02 03:29:45;;;;;;;4.32;3.92;;;11.20;98.20;;;;;;5068457;28;20220;-85
2021/10/02 03:32:13;;;;;;;4.97;3.70;;;11.10;98.20;;;;;;5098350;28;20308;-86
2021/10/02 03:35:30;;;;;;;3.88;3.50;;;11.20;97.80;;;;;;5099849;28;20256;-86
2021/10/02 03:38:00;;;;;;;3.85;3.55;;;11.00;98.00;;;;;;5077689;28;20258;-85
2021/10/02 03:40:27;;;;;;;3.50;3.20;;;11.10;98.30;;;;;;5064862;28;20282;-86
2021/10/02 03:42:57;;;;;;;3.88;3.38;;;11.00;98.10;;;;;;5068961;28;20260;-86
2021/10/02 03:45:27;;;;;;;3.97;3.58;;;10.90;98.00;;;;;;5084040;28;20215;-85
2021/10/02 03:47:54;;;;;;;4.50;3.50;;;10.80;98.40;;;;;;5083599;28;20240;-86
2021/10/02 03:50:23;;;;;;;3.78;3.40;;;10.70;98.40;;;;;;5084797;28;20684;-85
2021/10/02 03:52:50;;;;;;;6.18;3.50;;;10.60;99.00;;;;;;5103219;28;20236;-85
2021/10/02 03:55:19;;;;;;;6.07;3.50;;;10.70;98.90;;;;;;5104174;28;20290;-85
2021/10/02 03:58:19;;;;;;;3.90;3.45;;;10.70;98.50;;;;;;5084896;28;20229;-86
2021/10/02 04:00:45;;;;;;;5.22;3.53;;;10.60;98.50;;;;;;5075435;28;20280;-85
2021/10/02 04:03:13;;;;;;;3.88;3.47;;;10.50;98.60;;;;;;5084078;28;20211;-85
2021/10/02 04:05:40;;;;;;;4.60;3.47;;;10.40;98.80;;;;;;5082808;28;20287;-86
2021/10/02 04:08:07;;;;;;;4.15;3.70;;;10.30;99.20;;;;;;5083053;28;20221;-86
2021/10/02 04:10:35;;;;;;;4.00;3.60;;;10.30;99.20;;;;;;5083386;28;20280;-86
2021/10/02 04:13:02;;;;;;;3.92;3.40;;;10.40;99.70;;;;;;5083258;28;20595;-85
2021/10/02 04:15:30;;;;;;;5.80;3.45;;;10.40;99.30;;;;;;5083459;28;20193;-86
2021/10/02 04:17:58;;;;;;;3.72;3.15;;;10.30;99.40;;;;;;5068992;28;20213;-85
2021/10/02 04:20:25;;;;;;;4.90;3.47;;;10.30;99.40;;;;;;5084018;28;20265;-85
2021/10/02 04:22:52;;;;;;;3.90;3.38;;;10.40;99.50;;;;;;5082023;28;20280;-85
2021/10/02 04:25:19;;;;;;;4.25;3.58;;;10.50;99.30;;;;;;5082280;28;20283;-85
2021/10/02 04:27:47;;;;;;;6.35;3.58;;;10.50;99.00;;;;;;5081239;28;20225;-86
2021/10/02 04:30:14;;;;;;;4.25;3.40;;;10.40;98.90;;;;;;5082942;28;20204;-85
2021/10/02 04:32:41;;;;;;;6.25;3.80;;;10.30;99.00;;;;;;5100193;28;20251;-86
2021/10/02 04:35:09;;;;;;;5.35;3.65;;;10.30;99.50;;;;;;5103659;28;20207;-86
2021/10/02 04:37:36;;;;;;;4.07;3.45;;;10.30;99.30;;;;;;5102133;28;20238;-86
2021/10/02 04:40:04;;;;;;;3.42;3.13;;;10.40;99.40;;;;;;5094956;28;20296;-86
2021/10/02 04:42:31;;;;;;;5.25;3.55;;;10.40;99.50;;;;;;5065519;28;20225;-85
2021/10/02 04:44:59;;;;;;;4.20;3.55;;;10.50;99.30;;;;;;5067758;28;20197;-85
2021/10/02 04:47:37;;;;;;;5.43;3.58;;;10.50;99.20;;;;;;5082172;28;20224;-86
2021/10/02 04:50:05;;;;;;;5.15;3.40;;;10.50;99.20;;;;;;5082620;28;20196;-86
2021/10/02 04:52:32;;;;;;;3.75;3.33;;;10.50;99.50;;;;;;5069647;28;20312;-85
2021/10/02 04:54:59;;;;;;;5.05;3.30;;;10.60;99.40;;;;;;5080123;28;20201;-85
2021/10/02 04:57:26;;;;;;;6.63;3.78;;;10.60;99.00;;;;;;5081558;28;20298;-85
2021/10/02 04:59:53;;;;;;;4.30;3.90;;;10.60;98.90;;;;;;5081493;28;20296;-85
2021/10/02 05:02:22;;;;;;;5.22;3.63;;;10.50;99.00;;;;;;5082312;28;20221;-85
2021/10/02 05:04:49;;;;;;;5.65;3.38;;;10.50;99.00;;;;;;5064333;28;20663;-85
2021/10/02 05:07:18;;;;;;;4.38;2.88;;;10.60;99.10;;;;;;5080917;28;20224;-85
2021/10/02 05:09:45;;;;;;;4.28;3.38;;;10.50;99.10;;;;;;5080328;28;20209;-85
2021/10/02 05:12:12;;;;;;;4.15;3.55;;;10.50;98.80;;;;;;5081089;28;20267;-86
2021/10/02 05:14:40;;;;;;;4.75;3.35;;;10.40;98.90;;;;;;5082174;28;20219;-86
2021/10/02 05:17:13;;;;;;;5.00;3.58;;;10.30;99.00;;;;;;5069343;28;20233;-86
2021/10/02 05:19:43;;;;;;;3.55;3.13;;;10.30;99.50;;;;;;5081892;28;20201;-85
2021/10/02 05:22:10;;;;;;;3.50;3.20;;;10.40;99.50;;;;;;5082395;28;20217;-85
2021/10/02 05:25:25;;;;;;;5.90;3.33;;;10.40;99.00;;;;;;5061785;28;20205;-85
2021/10/02 05:27:52;;;;;;;5.18;3.60;;;10.40;99.20;;;;;;5080993;28;20248;-86
2021/10/02 05:30:20;;;;;;;4.38;3.47;;;10.50;99.40;;;;;;5076352;28;20190;-86
2021/10/02 05:32:48;;;;;;;4.70;3.75;;;10.40;99.00;;;;;;5080795;28;20279;-86
2021/10/02 05:35:16;;;;;;;4.72;3.47;;;10.40;99.30;;;;;;5080598;28;20201;-85
2021/10/02 05:37:43;;;;;;;6.72;3.30;;;10.30;99.20;;;;;;5081516;28;20201;-86
2021/10/02 05:40:11;;;;;;;5.05;3.47;;;10.30;99.50;;;;;;5081833;28;20276;-85
2021/10/02 05:42:44;;;;;;;4.40;3.45;;;10.40;99.70;;;;;;5065209;28;20228;-85
2021/10/02 05:45:11;;;;;;;3.90;3.53;;;10.60;99.50;;;;;;5068676;28;20257;-86
2021/10/02 05:47:38;;;;;;;4.60;3.47;;;10.60;99.30;;;;;;5081058;28;20692;-86
2021/10/02 05:50:26;;;;;;;3.60;3.30;;;10.60;99.30;;;;;;5075974;28;20683;-86
2021/10/02 05:52:54;;;;;;;7.55;3.55;;;10.60;99.20;;;;;;5080826;28;20575;-85
2021/10/02 05:55:21;;;;;;;5.10;3.78;;;10.80;99.40;;;;;;5079995;28;20614;-85
2021/10/02 05:57:48;;;;;;;4.32;3.30;;;10.90;99.20;;;;;;5080621;28;20300;-86
2021/10/02 06:00:15;;;;;;;6.53;3.63;;;10.90;99.00;;;;;;5081862;28;20225;-85
2021/10/02 06:02:42;;;;;;;4.20;3.53;;;11.00;98.90;;;;;;5073758;28;20293;-85
2021/10/02 06:05:09;;;;;;;4.25;3.85;;;11.00;99.00;;;;;;5080385;28;20212;-87
2021/10/02 06:07:40;;;;;;;5.53;3.60;;;11.10;99.20;;;;;;5082443;28;20221;-86
2021/10/02 06:10:07;;;;;;;5.47;3.95;;;11.30;99.20;;;;;;5077706;28;20273;-87
2021/10/02 06:12:35;;;;;;;5.32;3.63;;;11.50;98.60;;;;;;5083654;28;20228;-86
2021/10/02 06:15:01;;;;;;;4.88;3.70;;;11.50;98.30;;;;;;5065563;28;20337;-86
2021/10/02 06:17:29;;;;;;;8.15;3.60;;;11.70;98.40;;;;;;5096226;28;20296;-85
2021/10/02 06:19:55;;;;;;;4.13;3.50;;;11.70;98.30;;;;;;5097577;28;20200;-85
2021/10/02 06:22:22;;;;;;;6.93;3.88;;;11.70;98.10;;;;;;5080781;28;20780;-86
2021/10/02 06:24:51;;;;;;;4.22;3.60;;;11.90;98.10;;;;;;5079481;28;20264;-85
2021/10/02 06:27:18;;;;;;;6.97;3.67;;;12.00;97.90;;;;;;5080160;28;20586;-88
2021/10/02 06:29:47;;;;;;;5.90;3.95;;;12.10;97.60;;;;;;5063325;28;20196;-86
2021/10/02 06:32:14;;;;;;;4.95;3.85;;;12.10;97.40;;;;;;5079984;28;20224;-86
2021/10/02 06:34:41;;;;;;;5.45;4.00;;;12.20;97.20;;;;;;5082005;28;20209;-86
2021/10/02 06:37:08;;;;;;;6.18;4.28;;;12.30;97.10;;;;;;5075387;28;20212;-87
2021/10/02 06:39:36;;;;;;;4.82;4.20;;;12.30;97.20;;;;;;5082368;28;20193;-86
2021/10/02 06:42:05;;;;;;;5.88;4.22;;;12.40;97.30;;;;;;5082812;28;20235;-86
2021/10/02 06:44:32;;;;;;;5.18;4.20;;;12.40;97.20;;;;;;5083752;28;20224;-87
2021/10/02 06:50:33;;;;;;;6.82;3.78;;;12.70;97.00;;;;;;5013594;28;20276;-87
2021/10/02 06:53:04;;;;;;;6.03;4.25;;;12.90;96.90;;;;;;5069773;28;20237;-87
2021/10/02 06:55:32;;;;;;;5.45;3.80;;;13.20;96.70;;;;;;5086078;28;20221;-89
2021/10/02 06:58:02;;;;;;;4.03;3.40;;;13.40;96.80;;;;;;5080412;28;20215;-87
2021/10/02 07:00:29;;;;;;;5.25;3.70;;;13.50;96.50;;;;;;5079267;28;20288;-90
2021/10/02 07:02:56;;;;;;;5.63;3.22;;;13.60;96.10;;;;;;5067788;28;20324;-88
2021/10/02 07:05:23;;;;;;;4.80;3.70;;;13.80;95.20;;;;;;5080039;28;20205;-89
2021/10/02 07:07:57;;;;;;;3.97;3.45;;;13.80;95.00;;;;;;5074383;28;21290;-89
2021/10/02 07:10:24;;;;;;;4.40;4.00;;;13.80;95.10;;;;;;5067345;28;20289;-87
2021/10/02 07:13:19;;;;;;;4.28;3.85;;;13.80;94.90;;;;;;5097371;28;20610;-87
2021/10/02 07:15:46;;;;;;;4.22;3.83;;;13.90;95.10;;;;;;5084631;28;20205;-89
2021/10/02 07:18:16;;;;;;;4.22;3.83;;;13.90;95.30;;;;;;5079013;28;20666;-88
2021/10/02 07:20:45;;;;;;;5.15;3.63;;;14.20;95.50;;;;;;5083532;28;20197;-92
2021/10/02 07:23:20;;;;;;;3.80;3.42;;;14.40;95.10;;;;;;5081826;28;20189;-90
2021/10/02 07:29:11;;;;;;;5.22;3.25;;;15.20;92.40;;;;;;5090929;28;20215;-91
2021/10/02 07:31:39;;;;;;;7.63;3.50;;;15.50;91.60;;;;;;5093079;28;20231;-89
2021/10/02 07:34:06;;;;;;;3.92;3.38;;;15.60;90.00;;;;;;5095152;28;20243;-88
2021/10/02 07:36:33;;;;;;;4.03;3.40;;;15.80;90.30;;;;;;5083923;28;20235;-88
2021/10/02 07:39:00;;;;;;;3.50;3.10;;;15.80;88.50;;;;;;5067277;28;20277;-87
2021/10/02 07:41:29;;;;;;;5.93;3.20;;;16.00;86.80;;;;;;5066320;28;20225;-89
2021/10/02 07:43:58;;;;;;;3.60;2.95;;;16.10;87.70;;;;;;5067635;28;20210;-89
2021/10/02 07:46:27;;;;;;;3.50;3.20;;;16.10;85.90;;;;;;5075027;28;20221;-88
2021/10/02 07:48:55;;;;;;;6.13;4.00;;;16.10;87.60;;;;;;5080189;28;20580;-89
2021/10/02 07:51:24;;;;;;;4.05;3.38;;;16.00;88.50;;;;;;5076308;28;20216;-90
2021/10/02 07:53:52;;;;;;;3.90;3.50;;;16.00;88.70;;;;;;5060481;28;20197;-88
2021/10/02 07:56:19;;;;;;;3.88;3.47;;;15.80;88.80;;;;;;5066043;28;20240;-90
2021/10/02 07:58:47;;;;;;;4.25;3.47;;;15.60;89.20;;;;;;5068851;28;20208;-88
2021/10/02 08:01:15;;;;;;;3.78;3.47;;;15.50;90.10;;;;;;5063708;28;20231;-88
2021/10/02 08:03:46;;;;;;;3.58;3.25;;;15.40;90.40;;;;;;5069217;28;20193;-89
2021/10/02 08:06:13;;;;;;;3.90;3.55;;;15.40;90.70;;;;;;5074070;28;20299;-90
2021/10/02 08:08:43;;;;;;;5.45;4.63;;;15.50;90.50;;;;;;5089143;28;20678;-90
2021/10/02 08:11:10;;;;;;;4.53;3.50;;;15.50;90.80;;;;;;5075028;28;20323;-88
2021/10/02 08:13:37;;;;;;;3.97;3.50;;;15.60;91.20;;;;;;5085391;28;20307;-89
2021/10/02 08:16:05;;;;;;;4.90;3.70;;;15.70;90.50;;;;;;5086376;28;20703;-90
2021/10/02 08:18:38;;;;;;;4.07;3.47;;;15.60;90.00;;;;;;5087096;28;20283;-91
2021/10/02 08:21:08;;;;;;;3.88;3.58;;;15.80;90.00;;;;;;5082788;28;20221;-88
2021/10/02 08:23:37;;;;;;;7.43;4.05;;;15.90;90.30;;;;;;5089287;28;20201;-88
2021/10/02 08:26:05;;;;;;;4.90;4.10;;;16.00;89.00;;;;;;5088837;28;20243;-87
2021/10/02 08:28:33;;;;;;;4.25;3.85;;;16.10;88.00;;;;;;5090631;28;20217;-90
2021/10/02 08:31:02;;;;;;;5.47;4.10;;;16.10;88.30;;;;;;5087596;28;20236;-89
2021/10/02 08:33:29;;;;;;;4.30;3.88;;;16.30;86.70;;;;;;5066578;28;20201;-90
2021/10/02 08:35:55;;;;;;;4.93;4.43;;;16.40;88.00;;;;;;5082625;28;20243;-89
2021/10/02 08:38:24;;;;;;;5.20;4.22;;;16.50;84.60;;;;;;5091647;28;20192;-88
2021/10/02 08:40:55;;;;;;;7.63;4.63;;;16.60;84.50;;;;;;5085254;28;20209;-89
2021/10/02 08:43:24;;;;;;;5.95;4.28;;;16.70;84.70;;;;;;5086066;28;20223;-88
2021/10/02 08:45:52;;;;;;;5.13;4.60;;;16.90;84.70;;;;;;5083353;28;21133;-88
2021/10/02 08:48:19;;;;;;;6.60;4.10;;;17.00;84.10;;;;;;5078517;28;20217;-90
2021/10/02 08:50:48;;;;;;;6.07;4.93;;;17.10;81.80;;;;;;5088269;28;20208;-89
2021/10/02 08:53:16;;;;;;;5.40;4.65;;;17.30;82.10;;;;;;5088486;28;20815;-88
2021/10/02 08:55:46;;;;;;;6.15;5.10;;;17.40;80.10;;;;;;5088242;28;20201;-89
2021/10/02 08:58:12;;;;;;;5.15;4.65;;;17.50;79.10;;;;;;5081054;28;20208;-89
2021/10/02 09:00:40;;;;;;;6.78;4.72;;;17.70;79.20;;;;;;5084929;28;20661;-88
2021/10/02 09:03:07;;;;;;;7.13;4.80;;;18.00;78.90;;;;;;5084741;28;20200;-86
2021/10/02 09:05:36;;;;;;;5.20;4.70;;;18.30;74.60;;;;;;5096438;28;20203;-86
2021/10/02 09:08:03;;;;;;;6.93;5.00;;;18.90;71.80;;;;;;5088244;28;20212;-87
2021/10/02 09:10:32;;;;;;;5.70;4.50;;;20.10;61.20;;;;;;5089235;28;20268;-86
2021/10/02 09:13:06;;;;;;;5.55;4.43;;;20.80;56.60;;;;;;5082635;28;20318;-84
2021/10/02 09:15:35;;;;;;;4.72;4.32;;;21.50;51.70;;;;;;5086795;28;20708;-83
2021/10/02 09:18:02;;;;;;;7.28;4.75;;;22.00;45.60;;;;;;5067651;28;20224;-84
2021/10/02 09:20:29;;;;;;;5.28;4.25;;;22.40;41.40;;;;;;5065759;28;20203;-86
2021/10/02 09:23:01;;;;;;;6.90;4.60;;;24.10;35.50;;;;;;5073248;28;20297;-86
2021/10/02 09:25:30;;;;;;;5.43;4.85;;;25.20;33.90;;;;;;5068044;28;20197;-84
2021/10/02 09:28:09;;;;;;;6.65;4.20;;;26.40;29.30;;;;;;5065898;28;20233;-84
2021/10/02 09:30:37;;;;;;;4.78;4.07;;;28.00;25.80;;;;;;5073942;28;20211;-83
2021/10/02 09:33:06;;;;;;;4.88;4.45;;;29.00;22.40;;;;;;5066954;28;20838;-86
2021/10/02 09:35:39;;;;;;;5.13;4.63;;;30.40;19.80;;;;;;5066474;28;20212;-86
2021/10/02 09:38:10;;;;;;;5.10;4.70;;;30.80;17.70;;;;;;5062736;28;20201;-86
2021/10/02 09:40:37;;;;;;;4.90;4.50;;;30.60;17.00;;;;;;5068555;28;20615;-87
2021/10/02 09:43:07;;;;;;;4.95;4.50;;;31.10;17.20;;;;;;5092734;28;20207;-88
2021/10/02 09:45:36;;;;;;;5.05;4.75;;;31.50;17.40;;;;;;5088692;28;20204;-87
2021/10/02 09:48:06;;;;;;;5.43;5.03;;;32.00;17.60;;;;;;5057746;28;20318;-87
2021/10/02 09:50:35;;;;;;;5.03;4.63;;;32.60;15.10;;;;;;5064907;28;20212;-87
2021/10/02 09:53:04;;;;;;;6.93;4.72;;;32.90;14.70;;;;;;5073139;28;20224;-87
2021/10/02 09:55:32;;;;;;;5.20;4.68;;;31.70;14.70;;;;;;5065632;28;20204;-88
2021/10/02 09:58:01;;;;;;;4.82;4.50;;;30.90;17.10;;;;;;5068299;28;20733;-88
2021/10/02 10:00:34;;;;;;;5.40;4.22;;;30.20;16.70;;;;;;5069831;28;20196;-87
2021/10/02 10:03:05;;;;;;;4.72;4.20;;;30.40;16.80;;;;;;5064905;28;20720;-89
2021/10/02 10:05:35;;;;;;;5.57;4.70;;;30.20;16.70;;;;;;5067143;28;20200;-88
2021/10/02 10:08:05;;;;;;;4.80;4.30;;;29.60;17.80;;;;;;5059633;28;20221;-87
2021/10/02 10:10:33;;;;;;;4.50;4.20;;;29.00;19.30;;;;;;5064280;28;20200;-86
2021/10/02 10:13:05;;;;;;;4.80;4.40;;;28.20;21.00;;;;;;5066303;28;20231;-85
2021/10/02 10:15:37;;;;;;;4.30;3.88;;;27.70;22.40;;;;;;5063060;28;20200;-85
2021/10/02 10:18:04;;;;;;;4.20;3.90;;;27.70;23.00;;;;;;5073029;28;20217;-85
2021/10/02 10:20:42;;;;;;;5.45;4.10;;;27.50;23.20;;;;;;5067873;28;20197;-85
2021/10/02 10:23:11;;;;;;;4.22;3.90;;;28.10;21.90;;;;;;5056302;28;20572;-84
2021/10/02 10:25:52;;;;;;;4.65;4.25;;;28.70;21.70;;;;;;5073560;28;20697;-86
2021/10/02 10:28:22;;;;;;;4.50;4.10;;;28.10;18.60;;;;;;5083969;28;20212;-85
2021/10/02 10:30:51;;;;;;;5.03;4.55;;;28.60;19.50;;;;;;5081537;28;20200;-87
2021/10/02 10:33:20;;;;;;;4.47;4.13;;;28.60;19.00;;;;;;5086165;28;20227;-85
2021/10/02 10:35:50;;;;;;;6.15;4.60;;;28.80;23.30;;;;;;5077147;28;20678;-84
2021/10/02 10:38:19;;;;;;;4.90;4.35;;;28.80;20.00;;;;;;5075806;28;20189;-84
2021/10/02 10:40:47;;;;;;;4.97;4.15;;;27.40;19.50;;;;;;5081801;28;20208;-84
2021/10/02 10:43:14;;;;;;;4.65;4.25;;;28.20;20.60;;;;;;5094458;28;20199;-84
2021/10/02 10:45:42;;;;;;;5.07;4.47;;;28.70;20.00;;;;;;5089841;28;20661;-84
2021/10/02 10:48:11;;;;;;;4.25;3.95;;;28.60;19.10;;;;;;5096109;28;20196;-85
2021/10/02 10:50:40;;;;;;;5.25;4.75;;;28.90;20.80;;;;;;5100694;28;20639;-84
2021/10/02 10:53:07;;;;;;;4.95;4.55;;;29.00;16.50;;;;;;5087353;28;20211;-84
2021/10/02 10:55:48;;;;;;;5.20;4.40;;;27.80;18.70;;;;;;5079428;28;20201;-85
2021/10/02 10:58:22;;;;;;;5.70;4.32;;;26.80;20.50;;;;;;5068115;28;20577;-85
2021/10/02 11:00:49;;;;;;;5.82;4.38;;;25.40;24.60;;;;;;5065017;28;20193;-84
2021/10/02 11:03:36;;;;;;;4.82;4.47;;;25.50;27.50;;;;;;5067308;28;20196;-85
2021/10/02 11:06:03;;;;;;;5.10;4.38;;;24.60;27.30;;;;;;5064132;28;20237;-84
2021/10/02 11:09:00;;;;;;;7.25;4.57;;;24.10;27.40;;;;;;5070638;28;20200;-82
2021/10/02 11:11:59;;;;;;;4.97;4.38;;;23.60;28.50;;;;;;5063054;28;20227;-84
2021/10/02 11:15:00;;;;;;;5.05;4.50;;;23.50;31.40;;;;;;5066063;28;20190;-83
2021/10/02 11:17:48;;;;;;;5.38;4.88;;;23.40;31.70;;;;;;5053980;28;20229;-85
2021/10/02 11:20:34;;;;;;;5.50;4.70;;;23.40;34.90;;;;;;5068806;28;20649;-88
2021/10/02 11:23:35;;;;;;;4.75;4.35;;;23.30;30.60;;;;;;5059535;28;20699;-87
2021/10/02 11:26:15;;;;;;;9.07;6.82;;;23.20;32.20;;;;;;5069040;28;20229;-86
2021/10/02 11:28:44;;;;;;;4.97;4.47;;;23.20;33.30;;;;;;5086956;28;20303;-85
2021/10/02 11:31:15;;;;;;;4.93;4.00;;;22.80;34.40;;;;;;5085711;28;20227;-88
2021/10/02 11:33:44;;;;;;;4.68;3.88;;;22.60;34.20;;;;;;5089041;28;20197;-86
2021/10/02 11:36:46;;;;;;;7.47;3.92;;;22.40;31.60;;;;;;5081147;28;20327;-87
2021/10/02 11:39:18;;;;;;;4.75;4.35;;;22.40;33.80;;;;;;5080782;28;20188;-88
2021/10/02 11:41:47;;;;;;;7.85;3.97;;;22.40;32.90;;;;;;5083389;28;20280;-88
2021/10/02 11:44:22;;;;;;;4.95;4.43;;;22.60;32.20;;;;;;5087366;28;20291;-87
2021/10/02 11:46:55;;;;;;;5.03;4.63;;;22.90;31.50;;;;;;5077756;28;20222;-86
2021/10/02 11:49:23;;;;;;;5.18;4.68;;;23.20;31.40;;;;;;5075502;28;20287;-85
2021/10/02 11:54:57;;;;;;;4.20;3.88;;;23.30;32.70;;;;;;5121118;27;20631;-86
2021/10/02 11:57:24;;;;;;;5.03;3.60;;;22.50;29.00;;;;;;5069586;27;20218;-86
2021/10/02 11:59:52;;;;;;;4.68;3.47;;;22.20;28.30;;;;;;5062965;28;20215;-88
2021/10/02 12:02:19;;;;;;;4.47;3.55;;;22.20;28.00;;;;;;5056532;28;20218;-86
2021/10/02 12:04:51;;;;;;;3.70;3.40;;;22.00;28.30;;;;;;5058056;28;20202;-87
2021/10/02 12:07:18;;;;;;;3.60;3.30;;;22.30;29.40;;;;;;5057177;28;20228;-87
2021/10/02 12:09:55;;;;;;;3.90;3.50;;;22.40;30.20;;;;;;5057398;28;20202;-87
2021/10/02 12:12:27;;;;;;;4.25;3.40;;;22.40;32.10;;;;;;5060316;28;20224;-86
2021/10/02 12:14:57;;;;;;;4.22;3.85;;;22.30;29.30;;;;;;5067597;28;20205;-86
2021/10/02 12:17:24;;;;;;;5.82;4.13;;;22.30;31.20;;;;;;5089598;28;20224;-87
2021/10/02 12:19:51;;;;;;;6.97;4.45;;;22.50;32.20;;;;;;5102686;28;20199;-87
2021/10/02 12:22:18;;;;;;;4.22;3.83;;;22.20;33.80;;;;;;5094429;27;20220;-87
2021/10/02 12:24:45;;;;;;;4.53;3.90;;;22.30;31.60;;;;;;5101987;28;20200;-88
2021/10/02 12:27:15;;;;;;;4.70;4.25;;;22.50;32.00;;;;;;5105401;27;20289;-88
2021/10/02 12:29:47;;;;;;;4.95;4.38;;;22.50;34.10;;;;;;5100978;28;20211;-87
2021/10/02 12:32:15;;;;;;;4.60;4.20;;;22.30;34.00;;;;;;5105500;27;20216;-87
2021/10/02 12:34:44;;;;;;;5.93;4.18;;;22.50;34.10;;;;;;5102392;27;20261;-87
2021/10/02 12:37:15;;;;;;;5.05;4.18;;;22.60;34.20;;;;;;5100942;27;20820;-88
2021/10/02 12:39:45;;;;;;;4.80;4.30;;;22.70;31.20;;;;;;5096503;28;20197;-87
2021/10/02 12:42:14;;;;;;;3.78;3.47;;;22.60;31.60;;;;;;5102567;27;20222;-87
2021/10/02 12:44:49;;;;;;;4.32;3.92;;;22.60;32.10;;;;;;5108448;28;20215;-87
2021/10/02 12:47:17;;;;;;;9.13;4.07;;;22.30;33.00;;;;;;5095971;27;20212;-87
2021/10/02 12:49:46;;;;;;;4.28;3.88;;;22.10;33.80;;;;;;5094689;28;20189;-88
2021/10/02 12:52:15;;;;;;;6.40;3.95;;;21.90;33.60;;;;;;5096121;27;20307;-91
2021/10/02 12:54:47;;;;;;;3.90;3.60;;;21.60;33.50;;;;;;5103511;28;20231;-87
2021/10/02 12:57:17;;;;;;;4.20;3.80;;;21.60;33.40;;;;;;5096046;27;20216;-89
2021/10/02 12:59:59;;;;;;;4.93;3.85;;;21.70;33.50;;;;;;5103123;28;20216;-86
2021/10/02 13:02:27;;;;;;;4.88;4.47;;;21.80;33.60;;;;;;5106597;27;20216;-87
2021/10/02 13:04:54;;;;;;;4.53;4.13;;;21.70;33.50;;;;;;5104734;28;20207;-88
2021/10/02 13:07:26;;;;;;;6.05;3.97;;;21.40;33.30;;;;;;5094065;28;20217;-85
2021/10/02 13:09:59;;;;;;;4.32;3.85;;;21.30;33.20;;;;;;5100345;28;20227;-85
2021/10/02 13:12:33;;;;;;;6.68;3.45;;;21.30;33.20;;;;;;5092902;28;20224;-85
2021/10/02 13:15:03;;;;;;;3.88;3.50;;;21.40;29.70;;;;;;5099762;28;20220;-87
2021/10/02 13:17:30;;;;;;;4.00;3.60;;;21.50;29.10;;;;;;5109943;28;20212;-85
2021/10/02 13:20:21;;;;;;;3.67;3.30;;;21.50;28.50;;;;;;5099186;28;20284;-85
2021/10/02 13:22:50;;;;;;;5.18;3.65;;;21.60;30.80;;;;;;5083349;28;20216;-87
2021/10/02 13:25:25;;;;;;;3.70;3.40;;;21.50;30.80;;;;;;5100439;28;20547;-85
2021/10/02 13:27:55;;;;;;;5.20;3.88;;;21.60;32.10;;;;;;5097322;28;20223;-85
2021/10/02 13:30:29;;;;;;;4.82;3.60;;;21.40;31.90;;;;;;5093680;28;20257;-85
2021/10/02 13:33:07;;;;;;;3.97;3.58;;;21.40;31.40;;;;;;5101272;28;20222;-88
2021/10/02 13:35:37;;;;;;;6.53;3.97;;;21.60;32.30;;;;;;5105675;28;20327;-87
2021/10/02 13:38:04;;;;;;;4.32;3.60;;;21.30;33.20;;;;;;5096762;28;20238;-87
2021/10/02 13:40:36;;;;;;;3.75;3.45;;;21.40;33.20;;;;;;5105393;28;20196;-87
2021/10/02 13:43:05;;;;;;;3.90;3.50;;;21.40;33.20;;;;;;5099557;28;20209;-85
2021/10/02 13:45:36;;;;;;;4.38;3.70;;;21.50;31.70;;;;;;5102103;28;20200;-86
2021/10/02 13:48:06;;;;;;;3.42;3.13;;;21.40;30.50;;;;;;5104223;28;20303;-86
2021/10/02 13:50:34;;;;;;;4.65;3.67;;;21.40;30.40;;;;;;5097710;28;20202;-88
2021/10/02 13:53:02;;;;;;;4.45;3.80;;;21.40;30.70;;;;;;5092860;28;20220;-86
2021/10/02 13:55:30;;;;;;;6.07;3.60;;;21.40;32.10;;;;;;5102360;28;20197;-85
2021/10/02 13:57:57;;;;;;;5.63;3.75;;;21.40;33.20;;;;;;5095335;28;20220;-85
2021/10/02 14:00:25;;;;;;;5.15;4.05;;;21.40;33.20;;;;;;5097955;28;20287;-85
2021/10/02 14:02:54;;;;;;;8.82;4.13;;;21.30;33.20;;;;;;5093837;28;20220;-84
2021/10/02 14:05:22;;;;;;;4.65;4.03;;;21.30;33.80;;;;;;5097582;28;20203;-85
2021/10/02 14:07:49;;;;;;;5.45;4.30;;;21.20;35.10;;;;;;5096015;28;20224;-88